Saint Cloud, Minnesota
Current Conditions -  °F | °C
As of 10:09 AM on Sunday 23 Nov 2014 (Local Time) from KSTC Reporting Station
Light Rain Light Rain  
Wind Chill: 32°   Ceiling: 6500
Heat Index: 37°   Visibility: 3mi
Dew Point: 35°   Wind: 6mph
Humidity: 93%   Direction: 240°WSW
Pressure: 29.46"   Gusts: NA
Location:  45.55°N, 94.06°W
Report Text: KSTC 231609Z 24005KT 3SM -RA BR BKN065 OVC080 03/02 A2946 RMK AO2 UPE1554RAB1554 P0000 T00280017
Loading
Personal Weather Stations






























Interactive Weather Map New forecast layout! Learn more

10-Day Weather Forecast

Advertisements
Track Severe Weather on mobile